sensor_id;sensor_type;location;lat;lon;timestamp;P1;durP1;ratioP1;P2;durP2;ratioP2
67528;SDS011;54366;51.980;5.856;2023-06-14T00:01:47;2.88;;;2.20;;
67528;SDS011;54366;51.980;5.856;2023-06-14T00:04:21;4.75;;;2.42;;
67528;SDS011;54366;51.980;5.856;2023-06-14T00:06:54;2.75;;;2.20;;
67528;SDS011;54366;51.980;5.856;2023-06-14T00:09:29;2.72;;;2.05;;
67528;SDS011;54366;51.980;5.856;2023-06-14T00:12:02;3.65;;;2.40;;
67528;SDS011;54366;51.980;5.856;2023-06-14T00:14:28;3.35;;;2.22;;
67528;SDS011;54366;51.980;5.856;2023-06-14T00:17:01;2.47;;;2.20;;
67528;SDS011;54366;51.980;5.856;2023-06-14T00:19:35;3.22;;;2.03;;
67528;SDS011;54366;51.980;5.856;2023-06-14T00:22:02;2.30;;;1.88;;
67528;SDS011;54366;51.980;5.856;2023-06-14T00:24:35;2.20;;;2.00;;
67528;SDS011;54366;51.980;5.856;2023-06-14T00:27:08;4.03;;;2.13;;
67528;SDS011;54366;51.980;5.856;2023-06-14T00:29:41;3.67;;;2.03;;
67528;SDS011;54366;51.980;5.856;2023-06-14T00:32:14;2.90;;;2.20;;
67528;SDS011;54366;51.980;5.856;2023-06-14T00:34:47;3.08;;;2.22;;
67528;SDS011;54366;51.980;5.856;2023-06-14T00:37:13;2.78;;;2.20;;
67528;SDS011;54366;51.980;5.856;2023-06-14T00:39:46;2.47;;;1.90;;
67528;SDS011;54366;51.980;5.856;2023-06-14T00:42:26;3.08;;;2.10;;
67528;SDS011;54366;51.980;5.856;2023-06-14T00:45:00;2.28;;;1.77;;
67528;SDS011;54366;51.980;5.856;2023-06-14T00:47:26;5.07;;;2.10;;
67528;SDS011;54366;51.980;5.856;2023-06-14T00:50:00;2.90;;;2.30;;
67528;SDS011;54366;51.980;5.856;2023-06-14T00:52:34;3.42;;;1.63;;
67528;SDS011;54366;51.980;5.856;2023-06-14T00:55:08;2.92;;;1.70;;
67528;SDS011;54366;51.980;5.856;2023-06-14T00:57:41;3.33;;;1.90;;
67528;SDS011;54366;51.980;5.856;2023-06-14T01:00:14;4.97;;;2.28;;
67528;SDS011;54366;51.980;5.856;2023-06-14T01:05:20;2.90;;;1.88;;
67528;SDS011;54366;51.980;5.856;2023-06-14T01:08:21;5.07;;;1.98;;
67528;SDS011;54366;51.980;5.856;2023-06-14T01:11:10;2.83;;;1.90;;
67528;SDS011;54366;51.980;5.856;2023-06-14T01:13:46;2.47;;;1.70;;
67528;SDS011;54366;51.980;5.856;2023-06-14T01:16:13;2.92;;;2.40;;
67528;SDS011;54366;51.980;5.856;2023-06-14T01:18:47;2.53;;;1.83;;
67528;SDS011;54366;51.980;5.856;2023-06-14T01:21:23;3.95;;;2.35;;
67528;SDS011;54366;51.980;5.856;2023-06-14T01:23:57;2.58;;;1.73;;
67528;SDS011;54366;51.980;5.856;2023-06-14T01:26:31;2.33;;;1.60;;
67528;SDS011;54366;51.980;5.856;2023-06-14T01:28:59;3.08;;;1.60;;
67528;SDS011;54366;51.980;5.856;2023-06-14T01:31:32;3.90;;;2.00;;
67528;SDS011;54366;51.980;5.856;2023-06-14T01:34:13;3.80;;;1.80;;
67528;SDS011;54366;51.980;5.856;2023-06-14T01:36:50;2.45;;;1.90;;
67528;SDS011;54366;51.980;5.856;2023-06-14T01:39:33;2.78;;;1.90;;
67528;SDS011;54366;51.980;5.856;2023-06-14T01:42:14;3.90;;;2.00;;
67528;SDS011;54366;51.980;5.856;2023-06-14T01:44:48;4.32;;;2.33;;
67528;SDS011;54366;51.980;5.856;2023-06-14T01:47:23;2.00;;;1.80;;
67528;SDS011;54366;51.980;5.856;2023-06-14T01:49:56;3.08;;;1.85;;
67528;SDS011;54366;51.980;5.856;2023-06-14T01:52:22;3.00;;;2.00;;
67528;SDS011;54366;51.980;5.856;2023-06-14T01:54:56;2.20;;;1.55;;
67528;SDS011;54366;51.980;5.856;2023-06-14T01:57:30;1.70;;;1.60;;
67528;SDS011;54366;51.980;5.856;2023-06-14T02:00:03;2.88;;;1.75;;
67528;SDS011;54366;51.980;5.856;2023-06-14T02:02:40;2.90;;;1.70;;
67528;SDS011;54366;51.980;5.856;2023-06-14T02:05:13;3.33;;;1.95;;
67528;SDS011;54366;51.980;5.856;2023-06-14T02:07:46;2.88;;;1.80;;
67528;SDS011;54366;51.980;5.856;2023-06-14T02:10:19;3.38;;;2.10;;
67528;SDS011;54366;51.980;5.856;2023-06-14T02:12:46;2.60;;;1.75;;
67528;SDS011;54366;51.980;5.856;2023-06-14T02:15:20;2.83;;;1.70;;
67528;SDS011;54366;51.980;5.856;2023-06-14T02:17:47;2.05;;;1.40;;
67528;SDS011;54366;51.980;5.856;2023-06-14T02:20:21;2.72;;;1.80;;
67528;SDS011;54366;51.980;5.856;2023-06-14T02:22:47;2.65;;;1.73;;
67528;SDS011;54366;51.980;5.856;2023-06-14T02:25:20;2.20;;;1.60;;
67528;SDS011;54366;51.980;5.856;2023-06-14T02:27:53;2.22;;;1.40;;
67528;SDS011;54366;51.980;5.856;2023-06-14T02:30:27;2.53;;;1.83;;
67528;SDS011;54366;51.980;5.856;2023-06-14T02:32:56;2.60;;;1.73;;
67528;SDS011;54366;51.980;5.856;2023-06-14T02:35:29;2.03;;;1.60;;
67528;SDS011;54366;51.980;5.856;2023-06-14T02:38:09;2.25;;;1.77;;
67528;SDS011;54366;51.980;5.856;2023-06-14T02:40:42;1.88;;;1.70;;
67528;SDS011;54366;51.980;5.856;2023-06-14T02:43:22;2.85;;;1.83;;
67528;SDS011;54366;51.980;5.856;2023-06-14T02:45:48;2.70;;;1.70;;
67528;SDS011;54366;51.980;5.856;2023-06-14T02:48:21;2.95;;;1.40;;
67528;SDS011;54366;51.980;5.856;2023-06-14T02:50:54;1.98;;;1.50;;
67528;SDS011;54366;51.980;5.856;2023-06-14T02:53:28;1.80;;;1.60;;
67528;SDS011;54366;51.980;5.856;2023-06-14T02:56:01;2.05;;;1.60;;
67528;SDS011;54366;51.980;5.856;2023-06-14T02:58:29;2.08;;;1.50;;
67528;SDS011;54366;51.980;5.856;2023-06-14T03:01:02;2.55;;;1.80;;
67528;SDS011;54366;51.980;5.856;2023-06-14T03:03:35;3.75;;;1.60;;
67528;SDS011;54366;51.980;5.856;2023-06-14T03:06:08;3.38;;;1.65;;
67528;SDS011;54366;51.980;5.856;2023-06-14T03:08:43;2.33;;;1.80;;
67528;SDS011;54366;51.980;5.856;2023-06-14T03:11:14;2.03;;;1.70;;
67528;SDS011;54366;51.980;5.856;2023-06-14T03:13:47;1.63;;;1.50;;
67528;SDS011;54366;51.980;5.856;2023-06-14T03:16:20;1.98;;;1.73;;
67528;SDS011;54366;51.980;5.856;2023-06-14T03:18:54;5.68;;;2.45;;
67528;SDS011;54366;51.980;5.856;2023-06-14T03:21:30;2.53;;;1.65;;
67528;SDS011;54366;51.980;5.856;2023-06-14T03:24:03;1.70;;;1.60;;
67528;SDS011;54366;51.980;5.856;2023-06-14T03:26:30;2.63;;;1.40;;
67528;SDS011;54366;51.980;5.856;2023-06-14T03:29:03;1.75;;;1.60;;
67528;SDS011;54366;51.980;5.856;2023-06-14T03:31:41;1.50;;;1.40;;
67528;SDS011;54366;51.980;5.856;2023-06-14T03:34:35;3.65;;;2.10;;
67528;SDS011;54366;51.980;5.856;2023-06-14T03:37:15;2.80;;;1.60;;
67528;SDS011;54366;51.980;5.856;2023-06-14T03:39:55;2.35;;;1.70;;
67528;SDS011;54366;51.980;5.856;2023-06-14T03:42:31;1.90;;;1.42;;
67528;SDS011;54366;51.980;5.856;2023-06-14T03:45:05;2.85;;;1.63;;
67528;SDS011;54366;51.980;5.856;2023-06-14T03:47:32;3.45;;;1.60;;
67528;SDS011;54366;51.980;5.856;2023-06-14T03:50:06;2.22;;;1.90;;
67528;SDS011;54366;51.980;5.856;2023-06-14T03:52:34;3.45;;;1.98;;
67528;SDS011;54366;51.980;5.856;2023-06-14T03:55:07;2.20;;;1.83;;
67528;SDS011;54366;51.980;5.856;2023-06-14T03:57:34;2.08;;;1.88;;
67528;SDS011;54366;51.980;5.856;2023-06-14T04:00:10;2.28;;;2.08;;
67528;SDS011;54366;51.980;5.856;2023-06-14T04:02:45;1.63;;;1.52;;
67528;SDS011;54366;51.980;5.856;2023-06-14T04:05:18;2.13;;;1.50;;
67528;SDS011;54366;51.980;5.856;2023-06-14T04:07:48;1.73;;;1.42;;
67528;SDS011;54366;51.980;5.856;2023-06-14T04:10:23;3.85;;;1.48;;
67528;SDS011;54366;51.980;5.856;2023-06-14T04:12:49;1.42;;;1.30;;
67528;SDS011;54366;51.980;5.856;2023-06-14T04:15:23;2.60;;;1.60;;
67528;SDS011;54366;51.980;5.856;2023-06-14T04:17:57;3.22;;;1.73;;
67528;SDS011;54366;51.980;5.856;2023-06-14T04:20:30;3.80;;;1.75;;
67528;SDS011;54366;51.980;5.856;2023-06-14T04:23:11;2.53;;;1.50;;
67528;SDS011;54366;51.980;5.856;2023-06-14T04:25:45;2.85;;;1.60;;
67528;SDS011;54366;51.980;5.856;2023-06-14T04:28:13;2.50;;;1.90;;
67528;SDS011;54366;51.980;5.856;2023-06-14T04:30:50;3.33;;;1.92;;
67528;SDS011;54366;51.980;5.856;2023-06-14T04:33:23;3.35;;;1.98;;
67528;SDS011;54366;51.980;5.856;2023-06-14T04:35:57;2.50;;;1.88;;
67528;SDS011;54366;51.980;5.856;2023-06-14T04:38:32;2.55;;;1.55;;
67528;SDS011;54366;51.980;5.856;2023-06-14T04:41:07;2.10;;;1.48;;
67528;SDS011;54366;51.980;5.856;2023-06-14T04:43:37;1.90;;;1.63;;
67528;SDS011;54366;51.980;5.856;2023-06-14T04:46:11;2.58;;;1.73;;
67528;SDS011;54366;51.980;5.856;2023-06-14T04:48:47;2.35;;;1.80;;
67528;SDS011;54366;51.980;5.856;2023-06-14T04:51:22;2.10;;;1.80;;
67528;SDS011;54366;51.980;5.856;2023-06-14T04:54:01;1.60;;;1.50;;
67528;SDS011;54366;51.980;5.856;2023-06-14T04:56:35;3.08;;;1.60;;
67528;SDS011;54366;51.980;5.856;2023-06-14T04:59:11;5.22;;;1.70;;
67528;SDS011;54366;51.980;5.856;2023-06-14T05:01:38;3.25;;;1.65;;
67528;SDS011;54366;51.980;5.856;2023-06-14T05:04:11;2.35;;;1.50;;
67528;SDS011;54366;51.980;5.856;2023-06-14T05:06:44;3.03;;;1.90;;
67528;SDS011;54366;51.980;5.856;2023-06-14T05:09:18;1.75;;;1.65;;
67528;SDS011;54366;51.980;5.856;2023-06-14T05:11:51;3.53;;;2.00;;
67528;SDS011;54366;51.980;5.856;2023-06-14T05:14:24;4.13;;;1.70;;
67528;SDS011;54366;51.980;5.856;2023-06-14T05:16:51;3.63;;;1.63;;
67528;SDS011;54366;51.980;5.856;2023-06-14T05:19:25;3.28;;;1.98;;
67528;SDS011;54366;51.980;5.856;2023-06-14T05:21:59;2.85;;;2.10;;
67528;SDS011;54366;51.980;5.856;2023-06-14T05:24:32;4.70;;;2.25;;
67528;SDS011;54366;51.980;5.856;2023-06-14T05:27:05;2.22;;;1.67;;
67528;SDS011;54366;51.980;5.856;2023-06-14T05:29:38;2.85;;;1.88;;
67528;SDS011;54366;51.980;5.856;2023-06-14T05:32:04;3.92;;;2.10;;
67528;SDS011;54366;51.980;5.856;2023-06-14T05:34:38;3.42;;;1.85;;
67528;SDS011;54366;51.980;5.856;2023-06-14T05:37:11;2.20;;;1.95;;
67528;SDS011;54366;51.980;5.856;2023-06-14T05:39:38;3.47;;;1.40;;
67528;SDS011;54366;51.980;5.856;2023-06-14T05:42:11;2.78;;;1.73;;
67528;SDS011;54366;51.980;5.856;2023-06-14T05:44:51;5.60;;;2.40;;
67528;SDS011;54366;51.980;5.856;2023-06-14T05:47:24;4.47;;;1.70;;
67528;SDS011;54366;51.980;5.856;2023-06-14T05:49:51;2.35;;;1.90;;
67528;SDS011;54366;51.980;5.856;2023-06-14T05:52:24;3.97;;;2.03;;
67528;SDS011;54366;51.980;5.856;2023-06-14T05:54:57;3.20;;;1.45;;
67528;SDS011;54366;51.980;5.856;2023-06-14T05:57:30;2.97;;;1.88;;
67528;SDS011;54366;51.980;5.856;2023-06-14T06:00:03;4.07;;;2.20;;
67528;SDS011;54366;51.980;5.856;2023-06-14T06:02:47;4.38;;;2.05;;
67528;SDS011;54366;51.980;5.856;2023-06-14T06:05:13;3.45;;;2.17;;
67528;SDS011;54366;51.980;5.856;2023-06-14T06:07:47;1.95;;;1.85;;
67528;SDS011;54366;51.980;5.856;2023-06-14T06:10:20;3.45;;;1.90;;
67528;SDS011;54366;51.980;5.856;2023-06-14T06:12:53;1.90;;;1.63;;
67528;SDS011;54366;51.980;5.856;2023-06-14T06:15:20;2.70;;;2.00;;
67528;SDS011;54366;51.980;5.856;2023-06-14T06:17:53;2.85;;;2.28;;
67528;SDS011;54366;51.980;5.856;2023-06-14T06:20:19;2.80;;;2.25;;
67528;SDS011;54366;51.980;5.856;2023-06-14T06:22:53;4.63;;;2.17;;
67528;SDS011;54366;51.980;5.856;2023-06-14T06:25:26;3.20;;;2.30;;
67528;SDS011;54366;51.980;5.856;2023-06-14T06:27:59;2.72;;;2.10;;
67528;SDS011;54366;51.980;5.856;2023-06-14T06:30:32;2.47;;;1.65;;
67528;SDS011;54366;51.980;5.856;2023-06-14T06:32:58;2.53;;;1.92;;
67528;SDS011;54366;51.980;5.856;2023-06-14T06:35:31;3.15;;;1.80;;
67528;SDS011;54366;51.980;5.856;2023-06-14T06:37:58;2.13;;;1.55;;
67528;SDS011;54366;51.980;5.856;2023-06-14T06:40:38;3.72;;;2.03;;
67528;SDS011;54366;51.980;5.856;2023-06-14T06:43:11;2.55;;;2.10;;
67528;SDS011;54366;51.980;5.856;2023-06-14T06:45:49;3.13;;;1.95;;
67528;SDS011;54366;51.980;5.856;2023-06-14T06:48:15;2.33;;;2.10;;
67528;SDS011;54366;51.980;5.856;2023-06-14T06:50:49;3.35;;;1.75;;
67528;SDS011;54366;51.980;5.856;2023-06-14T06:53:22;3.28;;;1.90;;
67528;SDS011;54366;51.980;5.856;2023-06-14T06:55:55;3.05;;;1.90;;
67528;SDS011;54366;51.980;5.856;2023-06-14T06:58:28;3.55;;;2.13;;
67528;SDS011;54366;51.980;5.856;2023-06-14T07:01:01;1.70;;;1.60;;
67528;SDS011;54366;51.980;5.856;2023-06-14T07:03:27;2.50;;;2.05;;
67528;SDS011;54366;51.980;5.856;2023-06-14T07:06:00;3.33;;;2.10;;
67528;SDS011;54366;51.980;5.856;2023-06-14T07:08:26;3.15;;;1.90;;
67528;SDS011;54366;51.980;5.856;2023-06-14T07:10:59;3.22;;;1.70;;
67528;SDS011;54366;51.980;5.856;2023-06-14T07:13:32;1.70;;;1.60;;
67528;SDS011;54366;51.980;5.856;2023-06-14T07:15:58;2.17;;;1.63;;
67528;SDS011;54366;51.980;5.856;2023-06-14T07:18:35;2.28;;;1.80;;
67528;SDS011;54366;51.980;5.856;2023-06-14T07:21:09;2.40;;;1.65;;
67528;SDS011;54366;51.980;5.856;2023-06-14T07:23:42;2.92;;;1.70;;
67528;SDS011;54366;51.980;5.856;2023-06-14T07:26:15;2.75;;;1.60;;
67528;SDS011;54366;51.980;5.856;2023-06-14T07:28:41;3.33;;;1.50;;
67528;SDS011;54366;51.980;5.856;2023-06-14T07:31:17;1.40;;;1.30;;
67528;SDS011;54366;51.980;5.856;2023-06-14T07:33:44;1.65;;;1.40;;
67528;SDS011;54366;51.980;5.856;2023-06-14T07:36:18;3.55;;;1.75;;
67528;SDS011;54366;51.980;5.856;2023-06-14T07:38:51;1.67;;;1.48;;
67528;SDS011;54366;51.980;5.856;2023-06-14T07:41:37;1.75;;;1.48;;
67528;SDS011;54366;51.980;5.856;2023-06-14T07:44:10;3.42;;;1.48;;
67528;SDS011;54366;51.980;5.856;2023-06-14T07:46:37;1.52;;;1.20;;
67528;SDS011;54366;51.980;5.856;2023-06-14T07:49:10;2.92;;;1.25;;
67528;SDS011;54366;51.980;5.856;2023-06-14T07:51:43;1.50;;;1.30;;
67528;SDS011;54366;51.980;5.856;2023-06-14T07:56:50;1.88;;;1.00;;
67528;SDS011;54366;51.980;5.856;2023-06-14T07:59:23;1.13;;;1.00;;
67528;SDS011;54366;51.980;5.856;2023-06-14T08:01:56;1.65;;;0.90;;
67528;SDS011;54366;51.980;5.856;2023-06-14T08:04:22;4.47;;;1.15;;
67528;SDS011;54366;51.980;5.856;2023-06-14T08:06:57;3.30;;;1.08;;
67528;SDS011;54366;51.980;5.856;2023-06-14T08:09:30;2.22;;;1.00;;
67528;SDS011;54366;51.980;5.856;2023-06-14T08:12:04;2.08;;;1.02;;
67528;SDS011;54366;51.980;5.856;2023-06-14T08:14:42;2.15;;;1.10;;
67528;SDS011;54366;51.980;5.856;2023-06-14T08:17:15;1.47;;;0.80;;
67528;SDS011;54366;51.980;5.856;2023-06-14T08:19:41;2.10;;;0.95;;
67528;SDS011;54366;51.980;5.856;2023-06-14T08:22:14;0.55;;;0.55;;
67528;SDS011;54366;51.980;5.856;2023-06-14T08:24:40;1.33;;;0.90;;
67528;SDS011;54366;51.980;5.856;2023-06-14T08:27:14;1.67;;;1.27;;
67528;SDS011;54366;51.980;5.856;2023-06-14T08:29:41;1.00;;;0.85;;
67528;SDS011;54366;51.980;5.856;2023-06-14T08:32:14;1.57;;;1.13;;
67528;SDS011;54366;51.980;5.856;2023-06-14T08:34:40;1.77;;;1.00;;
67528;SDS011;54366;51.980;5.856;2023-06-14T08:37:13;1.33;;;0.90;;
67528;SDS011;54366;51.980;5.856;2023-06-14T08:39:46;1.60;;;1.00;;
67528;SDS011;54366;51.980;5.856;2023-06-14T08:42:26;1.35;;;0.82;;
67528;SDS011;54366;51.980;5.856;2023-06-14T08:44:59;1.00;;;0.90;;
67528;SDS011;54366;51.980;5.856;2023-06-14T08:47:25;2.22;;;1.15;;
67528;SDS011;54366;51.980;5.856;2023-06-14T08:50:01;1.73;;;1.02;;
67528;SDS011;54366;51.980;5.856;2023-06-14T08:52:37;1.58;;;1.08;;
67528;SDS011;54366;51.980;5.856;2023-06-14T08:55:17;2.90;;;1.10;;
67528;SDS011;54366;51.980;5.856;2023-06-14T08:57:50;1.37;;;1.20;;
67528;SDS011;54366;51.980;5.856;2023-06-14T09:00:23;2.07;;;1.20;;
67528;SDS011;54366;51.980;5.856;2023-06-14T09:02:57;2.03;;;1.10;;
67528;SDS011;54366;51.980;5.856;2023-06-14T09:05:30;1.20;;;1.10;;
67528;SDS011;54366;51.980;5.856;2023-06-14T09:08:03;3.57;;;0.90;;
67528;SDS011;54366;51.980;5.856;2023-06-14T09:10:37;1.60;;;1.00;;
67528;SDS011;54366;51.980;5.856;2023-06-14T09:13:11;1.60;;;1.23;;
67528;SDS011;54366;51.980;5.856;2023-06-14T09:15:44;1.33;;;1.20;;
67528;SDS011;54366;51.980;5.856;2023-06-14T09:18:17;1.37;;;1.20;;
67528;SDS011;54366;51.980;5.856;2023-06-14T09:20:52;1.88;;;1.08;;
67528;SDS011;54366;51.980;5.856;2023-06-14T09:23:22;0.98;;;0.85;;
67528;SDS011;54366;51.980;5.856;2023-06-14T09:25:55;1.20;;;0.80;;
67528;SDS011;54366;51.980;5.856;2023-06-14T09:28:26;0.80;;;0.80;;
67528;SDS011;54366;51.980;5.856;2023-06-14T09:31:00;1.20;;;1.10;;
67528;SDS011;54366;51.980;5.856;2023-06-14T09:33:27;1.30;;;1.05;;
67528;SDS011;54366;51.980;5.856;2023-06-14T09:36:00;1.75;;;0.88;;
67528;SDS011;54366;51.980;5.856;2023-06-14T09:38:26;2.55;;;1.00;;
67528;SDS011;54366;51.980;5.856;2023-06-14T09:41:05;1.27;;;1.17;;
67528;SDS011;54366;51.980;5.856;2023-06-14T09:43:38;1.85;;;1.10;;
67528;SDS011;54366;51.980;5.856;2023-06-14T09:46:11;3.35;;;0.80;;
67528;SDS011;54366;51.980;5.856;2023-06-14T09:48:44;1.70;;;0.80;;
67528;SDS011;54366;51.980;5.856;2023-06-14T09:51:10;3.00;;;1.08;;
67528;SDS011;54366;51.980;5.856;2023-06-14T09:53:48;1.17;;;0.90;;
67528;SDS011;54366;51.980;5.856;2023-06-14T09:56:23;3.38;;;1.10;;
67528;SDS011;54366;51.980;5.856;2023-06-14T09:59:00;1.60;;;0.75;;
67528;SDS011;54366;51.980;5.856;2023-06-14T10:01:42;2.38;;;0.98;;
67528;SDS011;54366;51.980;5.856;2023-06-14T10:04:15;1.33;;;0.80;;
67528;SDS011;54366;51.980;5.856;2023-06-14T10:06:50;1.73;;;1.00;;
67528;SDS011;54366;51.980;5.856;2023-06-14T10:09:24;0.80;;;0.80;;
67528;SDS011;54366;51.980;5.856;2023-06-14T10:11:58;2.70;;;0.98;;
67528;SDS011;54366;51.980;5.856;2023-06-14T10:14:31;1.58;;;0.90;;
67528;SDS011;54366;51.980;5.856;2023-06-14T10:17:07;1.40;;;0.88;;
67528;SDS011;54366;51.980;5.856;2023-06-14T10:22:45;1.67;;;0.80;;
67528;SDS011;54366;51.980;5.856;2023-06-14T10:25:29;1.58;;;1.08;;
67528;SDS011;54366;51.980;5.856;2023-06-14T10:28:14;0.90;;;0.60;;
67528;SDS011;54366;51.980;5.856;2023-06-14T10:31:06;1.95;;;0.80;;
67528;SDS011;54366;51.980;5.856;2023-06-14T10:36:43;1.20;;;1.10;;
67528;SDS011;54366;51.980;5.856;2023-06-14T10:39:16;1.23;;;0.90;;
67528;SDS011;54366;51.980;5.856;2023-06-14T10:42:03;1.25;;;0.60;;
67528;SDS011;54366;51.980;5.856;2023-06-14T10:44:39;1.02;;;0.90;;
67528;SDS011;54366;51.980;5.856;2023-06-14T10:47:29;3.03;;;0.70;;
67528;SDS011;54366;51.980;5.856;2023-06-14T10:50:08;1.27;;;0.70;;
67528;SDS011;54366;51.980;5.856;2023-06-14T10:52:43;1.85;;;0.95;;
67528;SDS011;54366;51.980;5.856;2023-06-14T10:55:16;2.03;;;0.60;;
67528;SDS011;54366;51.980;5.856;2023-06-14T10:57:51;1.52;;;0.90;;
67528;SDS011;54366;51.980;5.856;2023-06-14T11:00:28;4.50;;;1.15;;
67528;SDS011;54366;51.980;5.856;2023-06-14T11:06:15;0.85;;;0.73;;
67528;SDS011;54366;51.980;5.856;2023-06-14T11:12:13;1.73;;;0.80;;
67528;SDS011;54366;51.980;5.856;2023-06-14T11:14:47;1.73;;;0.80;;
67528;SDS011;54366;51.980;5.856;2023-06-14T11:17:20;1.05;;;0.70;;
67528;SDS011;54366;51.980;5.856;2023-06-14T11:20:12;1.00;;;0.90;;
67528;SDS011;54366;51.980;5.856;2023-06-14T11:22:48;4.57;;;0.90;;
67528;SDS011;54366;51.980;5.856;2023-06-14T11:25:14;3.75;;;1.10;;
67528;SDS011;54366;51.980;5.856;2023-06-14T11:27:48;1.35;;;1.10;;
67528;SDS011;54366;51.980;5.856;2023-06-14T11:30:22;0.80;;;0.80;;
67528;SDS011;54366;51.980;5.856;2023-06-14T11:32:49;1.23;;;0.90;;
67528;SDS011;54366;51.980;5.856;2023-06-14T11:35:25;1.20;;;0.80;;
67528;SDS011;54366;51.980;5.856;2023-06-14T11:37:52;1.25;;;1.02;;
67528;SDS011;54366;51.980;5.856;2023-06-14T11:40:31;2.85;;;0.90;;
67528;SDS011;54366;51.980;5.856;2023-06-14T11:43:04;1.50;;;1.10;;
67528;SDS011;54366;51.980;5.856;2023-06-14T11:45:37;0.90;;;0.90;;
67528;SDS011;54366;51.980;5.856;2023-06-14T11:48:11;1.83;;;0.77;;
67528;SDS011;54366;51.980;5.856;2023-06-14T11:50:37;3.50;;;1.00;;
67528;SDS011;54366;51.980;5.856;2023-06-14T11:53:11;1.33;;;1.00;;
67528;SDS011;54366;51.980;5.856;2023-06-14T11:55:44;1.33;;;0.80;;
67528;SDS011;54366;51.980;5.856;2023-06-14T11:58:19;1.55;;;0.80;;
67528;SDS011;54366;51.980;5.856;2023-06-14T12:00:52;1.55;;;0.80;;
67528;SDS011;54366;51.980;5.856;2023-06-14T12:03:22;2.85;;;0.95;;
67528;SDS011;54366;51.980;5.856;2023-06-14T12:06:07;3.85;;;1.08;;
67528;SDS011;54366;51.980;5.856;2023-06-14T12:08:40;1.43;;;1.00;;
67528;SDS011;54366;51.980;5.856;2023-06-14T12:11:17;1.60;;;0.90;;
67528;SDS011;54366;51.980;5.856;2023-06-14T12:13:50;1.70;;;0.90;;
67528;SDS011;54366;51.980;5.856;2023-06-14T12:16:16;1.30;;;0.70;;
67528;SDS011;54366;51.980;5.856;2023-06-14T12:18:49;1.40;;;0.82;;
67528;SDS011;54366;51.980;5.856;2023-06-14T12:21:22;1.90;;;0.80;;
67528;SDS011;54366;51.980;5.856;2023-06-14T12:23:49;1.08;;;0.70;;
67528;SDS011;54366;51.980;5.856;2023-06-14T12:26:23;1.83;;;0.80;;
67528;SDS011;54366;51.980;5.856;2023-06-14T12:28:59;3.38;;;1.23;;
67528;SDS011;54366;51.980;5.856;2023-06-14T12:31:25;1.55;;;0.82;;
67528;SDS011;54366;51.980;5.856;2023-06-14T12:33:58;0.90;;;0.80;;
67528;SDS011;54366;51.980;5.856;2023-06-14T12:36:31;2.15;;;0.63;;
67528;SDS011;54366;51.980;5.856;2023-06-14T12:39:04;0.80;;;0.60;;
67528;SDS011;54366;51.980;5.856;2023-06-14T12:41:30;0.60;;;0.60;;
67528;SDS011;54366;51.980;5.856;2023-06-14T12:44:03;2.47;;;0.83;;
67528;SDS011;54366;51.980;5.856;2023-06-14T12:46:36;2.17;;;0.70;;
67528;SDS011;54366;51.980;5.856;2023-06-14T12:49:05;5.30;;;0.90;;
67528;SDS011;54366;51.980;5.856;2023-06-14T12:51:39;0.60;;;0.50;;
67528;SDS011;54366;51.980;5.856;2023-06-14T12:54:12;1.25;;;0.80;;
67528;SDS011;54366;51.980;5.856;2023-06-14T12:56:46;0.85;;;0.63;;
67528;SDS011;54366;51.980;5.856;2023-06-14T12:59:19;1.00;;;0.80;;
67528;SDS011;54366;51.980;5.856;2023-06-14T13:01:52;1.23;;;0.65;;
67528;SDS011;54366;51.980;5.856;2023-06-14T13:04:26;0.73;;;0.70;;
67528;SDS011;54366;51.980;5.856;2023-06-14T13:06:59;1.67;;;0.50;;
67528;SDS011;54366;51.980;5.856;2023-06-14T13:09:25;1.35;;;0.63;;
67528;SDS011;54366;51.980;5.856;2023-06-14T13:11:59;1.40;;;0.55;;
67528;SDS011;54366;51.980;5.856;2023-06-14T13:14:25;1.63;;;0.55;;
67528;SDS011;54366;51.980;5.856;2023-06-14T13:16:58;1.83;;;0.70;;
67528;SDS011;54366;51.980;5.856;2023-06-14T13:19:24;1.45;;;0.60;;
67528;SDS011;54366;51.980;5.856;2023-06-14T13:21:57;2.05;;;0.88;;
67528;SDS011;54366;51.980;5.856;2023-06-14T13:24:30;0.70;;;0.63;;
67528;SDS011;54366;51.980;5.856;2023-06-14T13:26:56;1.48;;;0.80;;
67528;SDS011;54366;51.980;5.856;2023-06-14T13:29:29;1.08;;;0.40;;
67528;SDS011;54366;51.980;5.856;2023-06-14T13:32:03;1.65;;;0.50;;
67528;SDS011;54366;51.980;5.856;2023-06-14T13:34:45;0.90;;;0.50;;
67528;SDS011;54366;51.980;5.856;2023-06-14T13:37:30;0.55;;;0.40;;
67528;SDS011;54366;51.980;5.856;2023-06-14T13:40:03;2.05;;;0.52;;
67528;SDS011;54366;51.980;5.856;2023-06-14T13:42:50;1.25;;;0.60;;
67528;SDS011;54366;51.980;5.856;2023-06-14T13:45:23;0.88;;;0.40;;
67528;SDS011;54366;51.980;5.856;2023-06-14T13:47:49;1.00;;;0.40;;
67528;SDS011;54366;51.980;5.856;2023-06-14T13:50:24;2.20;;;0.50;;
67528;SDS011;54366;51.980;5.856;2023-06-14T13:52:57;0.45;;;0.40;;
67528;SDS011;54366;51.980;5.856;2023-06-14T13:55:23;0.85;;;0.50;;
67528;SDS011;54366;51.980;5.856;2023-06-14T13:57:56;1.93;;;0.63;;
67528;SDS011;54366;51.980;5.856;2023-06-14T14:00:23;2.58;;;0.75;;
67528;SDS011;54366;51.980;5.856;2023-06-14T14:02:56;1.63;;;0.57;;
67528;SDS011;54366;51.980;5.856;2023-06-14T14:05:23;1.13;;;0.47;;
67528;SDS011;54366;51.980;5.856;2023-06-14T14:08:00;0.73;;;0.40;;
67528;SDS011;54366;51.980;5.856;2023-06-14T14:10:28;1.30;;;0.60;;
67528;SDS011;54366;51.980;5.856;2023-06-14T14:13:01;1.30;;;0.40;;
67528;SDS011;54366;51.980;5.856;2023-06-14T14:18:00;1.20;;;0.73;;
67528;SDS011;54366;51.980;5.856;2023-06-14T14:20:35;1.58;;;0.60;;
67528;SDS011;54366;51.980;5.856;2023-06-14T14:23:08;0.55;;;0.40;;
67528;SDS011;54366;51.980;5.856;2023-06-14T14:25:35;1.92;;;0.40;;
67528;SDS011;54366;51.980;5.856;2023-06-14T14:28:07;0.60;;;0.40;;
67528;SDS011;54366;51.980;5.856;2023-06-14T14:30:40;1.02;;;0.50;;
67528;SDS011;54366;51.980;5.856;2023-06-14T14:33:14;0.68;;;0.55;;
67528;SDS011;54366;51.980;5.856;2023-06-14T14:35:45;1.98;;;0.50;;
67528;SDS011;54366;51.980;5.856;2023-06-14T14:38:18;1.13;;;0.52;;
67528;SDS011;54366;51.980;5.856;2023-06-14T14:40:51;0.77;;;0.40;;
67528;SDS011;54366;51.980;5.856;2023-06-14T14:43:37;0.95;;;0.30;;
67528;SDS011;54366;51.980;5.856;2023-06-14T14:46:10;0.70;;;0.43;;
67528;SDS011;54366;51.980;5.856;2023-06-14T14:48:36;1.95;;;0.40;;
67528;SDS011;54366;51.980;5.856;2023-06-14T14:51:09;2.03;;;0.60;;
67528;SDS011;54366;51.980;5.856;2023-06-14T14:53:42;0.68;;;0.55;;
67528;SDS011;54366;51.980;5.856;2023-06-14T14:56:15;0.75;;;0.50;;
67528;SDS011;54366;51.980;5.856;2023-06-14T14:58:49;1.60;;;0.40;;
67528;SDS011;54366;51.980;5.856;2023-06-14T15:01:16;0.68;;;0.40;;
67528;SDS011;54366;51.980;5.856;2023-06-14T15:03:49;0.43;;;0.40;;
67528;SDS011;54366;51.980;5.856;2023-06-14T15:06:22;0.60;;;0.60;;
67528;SDS011;54366;51.980;5.856;2023-06-14T15:08:55;0.70;;;0.60;;
67528;SDS011;54366;51.980;5.856;2023-06-14T15:11:28;1.90;;;0.63;;
67528;SDS011;54366;51.980;5.856;2023-06-14T15:13:54;1.15;;;0.47;;
67528;SDS011;54366;51.980;5.856;2023-06-14T15:16:27;0.60;;;0.50;;
67528;SDS011;54366;51.980;5.856;2023-06-14T15:18:53;0.32;;;0.30;;
67528;SDS011;54366;51.980;5.856;2023-06-14T15:21:26;1.10;;;0.50;;
67528;SDS011;54366;51.980;5.856;2023-06-14T15:23:59;0.73;;;0.50;;
67528;SDS011;54366;51.980;5.856;2023-06-14T15:26:32;2.42;;;0.77;;
67528;SDS011;54366;51.980;5.856;2023-06-14T15:29:05;1.80;;;0.67;;
67528;SDS011;54366;51.980;5.856;2023-06-14T15:31:38;1.83;;;0.68;;
67528;SDS011;54366;51.980;5.856;2023-06-14T15:34:11;3.10;;;0.70;;
67528;SDS011;54366;51.980;5.856;2023-06-14T15:36:44;1.33;;;0.50;;
67528;SDS011;54366;51.980;5.856;2023-06-14T15:39:10;0.70;;;0.52;;
67528;SDS011;54366;51.980;5.856;2023-06-14T15:41:43;1.17;;;0.60;;
67528;SDS011;54366;51.980;5.856;2023-06-14T15:44:26;1.00;;;0.57;;